KDYS

Dyess AFB Airport

Abilene, Texas, USA
METAR KDYS 141256Z 19010KT 10SM CLR 23/20 A2998 RMK AO2A SLP129 WND DATA ESTMD ALSTG/SLP ESTMD PNO CHINO RWY34 $
Observed Flight Rules
Aug-14 @ 12:56 UTC (46 minutes ago) Visual Flight Rules
Wind Visibility Clouds
190° at 10 knots 10 miles
  • Clear skies
Temperatures Readings
Current 23°C / 73°F
Dewpoint 20°C / 68°F
Humidity 83%
Altimeter 29.98" Hg
Pressure 1012.9 hPa
Elevation 545
METAR KDYS 141256Z 19010KT 10SM CLR 23/20 A2998 RMK AO2A SLP129 WND DATA ESTMD ALSTG/SLP ESTMD PNO CHINO RWY34 $
Observed Flight Rules
Aug-14 @ 12:56 UTC
(46 minutes ago)
VFR
Wind Visibility
190° at 10 knots 10 miles
Clouds
  • Clear skies
Temperature Dewpoint
23°C / 73°F 20°C / 68°F
Humidity Altimeter Pressure
83% 29.98" Hg 1012.9 hPa